Time;durP1;ratioP1;P1;durP2;ratioP2;P2;SDS_P1;SDS_P2;PMS_P1;PMS_P2;Temp;Humidity;BMP_temperature;BMP_pressure;BME280_temperature;BME280_humidity;BME280_pressure;Samples;Min_cycle;Max_cycle;Signal;HPM_P1;HPM_P2
2023/09/26 00:02:24;;;;;;;3.20;2.90;;;;;;;11.43;86.07;101615.41;5102070;28;20201;-80
2023/09/26 00:04:52;;;;;;;2.83;2.53;;;;;;;11.40;85.96;101610.22;5105794;28;20708;-80
2023/09/26 00:07:18;;;;;;;3.57;2.60;;;;;;;11.40;85.92;101612.91;5103576;28;20654;-80
2023/09/26 00:09:45;;;;;;;3.40;2.63;;;;;;;11.39;86.10;101613.84;5094594;28;20239;-80
2023/09/26 00:12:12;;;;;;;3.13;2.60;;;;;;;11.37;86.00;101615.72;5088869;28;20897;-80
2023/09/26 00:14:39;;;;;;;4.20;2.97;;;;;;;11.35;85.81;101612.25;5090189;28;20225;-79
2023/09/26 00:17:05;;;;;;;4.37;3.07;;;;;;;11.33;85.71;101608.81;5091015;28;20224;-77
2023/09/26 00:19:32;;;;;;;3.17;2.60;;;;;;;11.30;85.30;101605.44;5093662;28;20207;-80
2023/09/26 00:22:00;;;;;;;3.00;2.63;;;;;;;11.26;85.47;101606.56;5099147;28;20657;-80
2023/09/26 00:24:26;;;;;;;3.43;2.57;;;;;;;11.22;85.54;101608.50;5095508;28;20200;-79
2023/09/26 00:26:53;;;;;;;3.67;2.67;;;;;;;11.20;85.71;101612.19;5094285;28;20201;-81
2023/09/26 00:29:20;;;;;;;3.77;3.10;;;;;;;11.17;85.64;101607.00;5099331;28;20226;-79
2023/09/26 00:31:46;;;;;;;5.20;2.70;;;;;;;11.13;85.76;101607.16;5091064;28;20205;-80
2023/09/26 00:34:13;;;;;;;3.43;2.60;;;;;;;11.06;85.52;101603.09;5102082;28;20198;-79
2023/09/26 00:36:39;;;;;;;3.00;2.70;;;;;;;11.00;85.18;101605.19;5097395;28;20206;-78
2023/09/26 00:39:07;;;;;;;3.20;2.73;;;;;;;10.94;85.52;101600.16;5098327;28;20212;-80
2023/09/26 00:41:34;;;;;;;4.07;2.50;;;;;;;10.89;85.98;101603.06;5090955;28;20250;-79
2023/09/26 00:44:01;;;;;;;3.30;2.43;;;;;;;10.86;86.69;101599.69;5089201;28;20581;-82
2023/09/26 00:46:28;;;;;;;2.97;2.67;;;;;;;10.84;86.71;101598.88;5089328;28;20678;-81
2023/09/26 00:48:54;;;;;;;6.10;2.67;;;;;;;10.78;86.49;101594.72;5095126;28;20518;-78
2023/09/26 00:51:21;;;;;;;3.40;2.80;;;;;;;10.73;87.22;101592.31;5096847;28;20203;-78
2023/09/26 00:53:47;;;;;;;3.30;2.57;;;;;;;10.71;87.35;101598.63;5088546;28;20223;-77
2023/09/26 00:56:15;;;;;;;4.23;2.70;;;;;;;10.67;88.29;101591.72;5092871;28;20225;-78
2023/09/26 00:58:42;;;;;;;3.53;2.70;;;;;;;10.60;89.15;101590.28;5094684;28;20229;-81
2023/09/26 01:01:09;;;;;;;3.27;2.97;;;;;;;10.56;90.04;101594.06;5095741;28;20219;-81
2023/09/26 01:03:35;;;;;;;3.00;2.80;;;;;;;10.54;90.80;101587.94;5093494;28;20230;-81
2023/09/26 01:06:02;;;;;;;3.93;2.47;;;;;;;10.52;91.23;101584.47;5102186;28;20209;-77
2023/09/26 01:08:30;;;;;;;3.53;2.73;;;;;;;10.52;90.88;101581.81;5092198;28;20220;-80
2023/09/26 01:10:57;;;;;;;3.20;2.90;;;;;;;10.47;90.73;101576.72;5093747;28;20216;-81
2023/09/26 01:13:25;;;;;;;3.53;3.13;;;;;;;10.39;90.87;101590.38;5095971;28;20205;-78
2023/09/26 01:15:52;;;;;;;5.30;3.40;;;;;;;10.35;91.58;101579.97;5096725;28;20200;-77
2023/09/26 01:18:23;;;;;;;3.87;3.17;;;;;;;10.31;91.24;101576.59;5093788;28;20224;-77
2023/09/26 01:20:50;;;;;;;6.20;3.90;;;;;;;10.27;91.63;101572.31;5095834;28;20221;-81
2023/09/26 01:23:17;;;;;;;3.30;2.80;;;;;;;10.23;91.94;101576.06;5093167;28;20201;-79
2023/09/26 01:25:45;;;;;;;4.03;3.63;;;;;;;10.20;92.37;101572.72;5089285;28;20595;-78
2023/09/26 01:28:17;;;;;;;3.73;3.27;;;;;;;10.20;92.90;101570.91;5098829;28;20312;-80
2023/09/26 01:30:43;;;;;;;4.03;3.30;;;;;;;10.19;92.84;101563.84;5085115;28;20225;-80
2023/09/26 01:33:12;;;;;;;3.47;3.17;;;;;;;10.21;92.99;101567.28;5095635;28;20197;-81
2023/09/26 01:35:39;;;;;;;4.20;3.80;;;;;;;10.21;93.57;101561.97;5099930;28;20290;-81
2023/09/26 01:38:05;;;;;;;3.20;2.90;;;;;;;10.23;93.58;101564.56;5098870;28;20224;-78
2023/09/26 01:40:32;;;;;;;3.97;3.53;;;;;;;10.24;93.19;101564.47;5098205;28;20260;-81
2023/09/26 01:43:00;;;;;;;3.77;3.40;;;;;;;10.27;93.62;101567.00;5090547;28;20197;-81
2023/09/26 01:45:26;;;;;;;3.40;3.10;;;;;;;10.27;94.02;101566.13;5102316;28;20196;-78
2023/09/26 01:47:53;;;;;;;4.23;3.40;;;;;;;10.26;93.73;101559.94;5098759;28;20251;-78
2023/09/26 01:50:21;;;;;;;4.10;3.60;;;;;;;10.24;94.03;101564.47;5096657;28;20225;-80
2023/09/26 01:52:49;;;;;;;3.47;3.10;;;;;;;10.24;94.04;101566.28;5100321;28;20207;-81
2023/09/26 01:55:18;;;;;;;4.23;3.50;;;;;;;10.21;93.88;101564.63;5098504;28;20601;-82
2023/09/26 01:57:45;;;;;;;4.97;3.37;;;;;;;10.20;93.74;101562.94;5099681;28;20342;-81
2023/09/26 02:00:14;;;;;;;3.73;3.43;;;;;;;10.20;94.06;101562.94;5093737;28;20264;-80
2023/09/26 02:02:41;;;;;;;4.33;3.27;;;;;;;10.21;93.87;101571.78;5097624;28;20216;-81
2023/09/26 02:05:08;;;;;;;3.50;3.20;;;;;;;10.21;94.03;101567.28;5101955;28;20208;-78
2023/09/26 02:07:35;;;;;;;4.00;2.90;;;;;;;10.23;94.49;101568.06;5103206;28;20229;-81
2023/09/26 02:10:03;;;;;;;3.90;3.30;;;;;;;10.27;94.43;101571.47;5093121;28;20225;-79
2023/09/26 02:12:29;;;;;;;3.67;3.33;;;;;;;10.30;94.54;101566.88;5101995;28;20204;-80
2023/09/26 02:14:56;;;;;;;3.63;3.10;;;;;;;10.32;94.51;101566.78;5100786;28;20204;-79
2023/09/26 02:17:24;;;;;;;5.03;3.57;;;;;;;10.30;95.00;101561.53;5105208;28;20224;-81
2023/09/26 02:19:50;;;;;;;4.77;3.77;;;;;;;10.31;95.38;101565.94;5105645;28;20204;-79
2023/09/26 02:22:17;;;;;;;3.47;3.17;;;;;;;10.30;95.63;101560.66;5107293;28;20656;-80
2023/09/26 02:24:43;;;;;;;3.93;3.40;;;;;;;10.30;95.62;101550.88;5102504;28;20204;-78
2023/09/26 02:27:10;;;;;;;3.93;3.53;;;;;;;10.32;95.24;101558.81;5099297;28;20232;-80
2023/09/26 02:29:37;;;;;;;5.13;4.00;;;;;;;10.32;95.05;101553.47;5104306;28;20258;-80
2023/09/26 02:32:04;;;;;;;4.20;3.80;;;;;;;10.32;95.07;101550.81;5104599;28;20206;-80
2023/09/26 02:34:32;;;;;;;3.57;3.23;;;;;;;10.29;94.86;101549.16;5094822;28;20223;-79
2023/09/26 02:36:58;;;;;;;4.80;3.83;;;;;;;10.27;94.62;101545.69;5102546;28;20248;-79
2023/09/26 02:39:25;;;;;;;5.63;3.50;;;;;;;10.23;94.13;101540.59;5096349;28;20680;-80
2023/09/26 02:41:51;;;;;;;4.30;3.90;;;;;;;10.18;94.24;101546.13;5098195;28;20198;-81
2023/09/26 02:44:18;;;;;;;4.00;3.30;;;;;;;10.15;94.00;101546.25;5106706;28;20209;-79
2023/09/26 02:46:44;;;;;;;3.73;3.30;;;;;;;10.11;93.57;101536.69;5100681;28;20807;-78
2023/09/26 02:49:10;;;;;;;4.07;3.27;;;;;;;10.08;93.52;101536.84;5099822;28;20204;-80
2023/09/26 02:51:38;;;;;;;4.47;3.30;;;;;;;10.04;93.14;101545.88;5100173;28;20228;-80
2023/09/26 02:54:05;;;;;;;3.50;3.20;;;;;;;10.02;93.11;101546.00;5105654;28;20200;-80
2023/09/26 02:56:31;;;;;;;4.67;3.30;;;;;;;10.01;92.52;101556.69;5108115;28;20223;-79
2023/09/26 02:58:58;;;;;;;3.80;3.50;;;;;;;9.99;92.61;101554.09;5109932;28;20220;-80
2023/09/26 03:01:24;;;;;;;5.80;3.73;;;;;;;9.99;92.77;101555.91;5107548;28;20205;-80
2023/09/26 03:03:52;;;;;;;4.50;3.97;;;;;;;9.98;93.15;101551.50;5108778;28;20218;-79
2023/09/26 03:06:18;;;;;;;5.27;4.77;;;;;;;9.95;93.69;101544.53;5090522;28;20268;-81
2023/09/26 03:08:46;;;;;;;4.37;3.97;;;;;;;9.95;94.01;101556.97;5109970;28;20224;-77
2023/09/26 03:11:13;;;;;;;4.93;4.43;;;;;;;9.94;93.93;101544.59;5108505;28;20259;-79
2023/09/26 03:13:39;;;;;;;3.93;3.63;;;;;;;9.90;94.04;101540.34;5109887;28;20204;-79
2023/09/26 03:16:08;;;;;;;4.43;4.03;;;;;;;9.89;94.03;101539.50;5101210;28;20227;-81
2023/09/26 03:18:35;;;;;;;5.50;3.67;;;;;;;9.87;94.27;101541.34;5109026;28;20232;-80
2023/09/26 03:21:03;;;;;;;4.73;4.10;;;;;;;9.85;94.35;101537.06;5101917;28;20197;-79
2023/09/26 03:23:30;;;;;;;6.10;3.90;;;;;;;9.85;94.22;101537.06;5111728;28;20208;-78
2023/09/26 03:25:58;;;;;;;4.10;3.57;;;;;;;9.84;93.95;101545.97;5104208;28;20196;-80
2023/09/26 03:28:24;;;;;;;4.33;3.93;;;;;;;9.82;94.57;101540.72;5107845;28;20234;-80
2023/09/26 03:30:51;;;;;;;3.83;3.43;;;;;;;9.80;94.61;101549.69;5101019;28;20242;-80
2023/09/26 03:33:17;;;;;;;4.43;3.70;;;;;;;9.80;93.84;101544.38;5109556;28;20204;-79
2023/09/26 03:35:44;;;;;;;4.37;3.60;;;;;;;9.78;94.18;101543.59;5108617;28;20211;-80
2023/09/26 03:38:10;;;;;;;3.90;3.47;;;;;;;9.72;93.72;101537.59;5110311;27;20220;-80
2023/09/26 03:40:37;;;;;;;3.50;3.20;;;;;;;9.69;93.40;101547.50;5108522;28;20209;-78
2023/09/26 03:43:04;;;;;;;3.53;3.20;;;;;;;9.62;92.61;101546.94;5108321;28;20637;-81
2023/09/26 03:45:32;;;;;;;4.60;3.40;;;;;;;9.58;92.46;101550.66;5100889;28;20204;-78
2023/09/26 03:47:58;;;;;;;6.33;4.30;;;;;;;9.54;92.23;101542.88;5105492;28;20230;-80
2023/09/26 03:50:25;;;;;;;3.63;3.20;;;;;;;9.52;92.36;101539.44;5110391;28;20230;-79
2023/09/26 03:52:51;;;;;;;4.47;3.70;;;;;;;9.47;92.20;101533.47;5114590;28;20195;-83
2023/09/26 03:55:18;;;;;;;4.47;4.07;;;;;;;9.46;92.16;101540.59;5104591;28;20208;-81
2023/09/26 03:57:44;;;;;;;5.30;3.80;;;;;;;9.45;92.45;101532.69;5105499;28;20231;-79
2023/09/26 04:00:16;;;;;;;5.17;4.37;;;;;;;9.43;92.35;101538.06;5097691;28;20204;-79
2023/09/26 04:02:44;;;;;;;3.97;3.57;;;;;;;9.42;92.33;101532.81;5103265;28;20207;-78
2023/09/26 04:05:10;;;;;;;3.93;3.63;;;;;;;9.40;92.85;101536.41;5094819;28;20208;-80
2023/09/26 04:07:37;;;;;;;4.30;3.90;;;;;;;9.39;93.26;101528.50;5110345;28;20223;-80
2023/09/26 04:10:05;;;;;;;4.00;3.60;;;;;;;9.38;92.52;101529.41;5101647;28;20204;-80
2023/09/26 04:12:32;;;;;;;4.27;3.77;;;;;;;9.36;93.19;101518.00;5094557;28;20714;-77
2023/09/26 04:14:58;;;;;;;4.73;3.80;;;;;;;9.34;92.67;101519.84;5094631;28;20216;-80
2023/09/26 04:17:26;;;;;;;4.97;4.00;;;;;;;9.33;93.27;101520.78;5090921;28;20746;-80
2023/09/26 04:19:52;;;;;;;4.87;3.93;;;;;;;9.33;93.39;101510.13;5101948;28;20224;-77
2023/09/26 04:22:19;;;;;;;5.57;4.03;;;;;;;9.29;93.37;101505.91;5094309;28;20585;-81
2023/09/26 04:24:45;;;;;;;5.90;3.83;;;;;;;9.25;93.38;101506.97;5104939;28;20209;-80
2023/09/26 04:27:11;;;;;;;7.23;4.20;;;;;;;9.19;93.24;101516.06;5101941;28;20220;-78
2023/09/26 04:29:38;;;;;;;5.53;4.43;;;;;;;9.15;93.93;101509.16;5098903;28;20215;-79
2023/09/26 04:32:05;;;;;;;5.70;5.10;;;;;;;9.11;94.00;101509.38;5092247;28;20220;-79
2023/09/26 04:34:32;;;;;;;4.47;4.07;;;;;;;9.09;94.50;101509.44;5088809;28;20199;-79
2023/09/26 04:36:59;;;;;;;4.60;4.20;;;;;;;9.05;95.24;101506.06;5094454;28;20228;-79
2023/09/26 04:39:25;;;;;;;4.93;4.47;;;;;;;9.04;95.71;101495.50;5088966;28;20204;-80
2023/09/26 04:41:52;;;;;;;5.20;4.70;;;;;;;9.03;95.73;101499.94;5093029;28;20207;-80
2023/09/26 04:44:18;;;;;;;5.30;4.37;;;;;;;9.02;96.46;101497.34;5102731;28;20264;-79
2023/09/26 04:46:45;;;;;;;5.33;4.70;;;;;;;9.01;95.74;101509.75;5105417;28;20225;-81
2023/09/26 04:49:11;;;;;;;9.40;5.27;;;;;;;9.00;96.62;101489.44;5098707;28;20211;-79
2023/09/26 04:51:39;;;;;;;5.47;4.97;;;;;;;9.01;96.89;101485.00;5103809;28;20228;-79
2023/09/26 04:54:06;;;;;;;5.70;5.00;;;;;;;9.01;96.81;101491.16;5098070;28;20212;-81
2023/09/26 04:56:32;;;;;;;5.53;5.03;;;;;;;9.01;97.16;101496.47;5098009;28;20215;-80
2023/09/26 04:58:59;;;;;;;6.10;5.20;;;;;;;9.02;97.04;101492.91;5087772;28;20220;-80
2023/09/26 05:01:26;;;;;;;8.80;5.37;;;;;;;9.03;96.96;101491.97;5094827;28;20244;-80
2023/09/26 05:03:52;;;;;;;8.77;5.90;;;;;;;9.02;97.10;101487.59;5098766;28;20200;-80
2023/09/26 05:06:19;;;;;;;7.20;5.33;;;;;;;9.03;97.90;101499.94;5102461;28;20583;-81
2023/09/26 05:08:46;;;;;;;5.47;4.90;;;;;;;9.01;97.96;101493.81;5097781;28;20227;-80
2023/09/26 05:11:14;;;;;;;5.70;4.93;;;;;;;8.96;96.92;101489.63;5097875;28;20228;-79
2023/09/26 05:13:41;;;;;;;5.87;4.70;;;;;;;8.89;96.18;101497.03;5102602;28;20200;-81
2023/09/26 05:16:08;;;;;;;5.67;4.43;;;;;;;8.84;96.61;101492.81;5102424;28;20678;-81
2023/09/26 05:18:35;;;;;;;5.00;4.60;;;;;;;8.80;96.25;101499.19;5101452;28;20245;-80
2023/09/26 05:21:06;;;;;;;5.27;4.47;;;;;;;8.78;96.86;101499.25;5105772;28;20203;-79
2023/09/26 05:23:32;;;;;;;5.03;4.47;;;;;;;8.75;96.17;101496.75;5105507;28;20200;-79
2023/09/26 05:26:05;;;;;;;5.23;4.73;;;;;;;8.72;96.41;101502.19;5099134;28;20207;-80
2023/09/26 05:28:32;;;;;;;4.67;4.27;;;;;;;8.67;96.03;101502.38;5099958;28;20228;-79
2023/09/26 05:30:58;;;;;;;7.27;4.80;;;;;;;8.68;96.90;101503.22;5103242;28;20231;-80
2023/09/26 05:33:25;;;;;;;11.07;5.50;;;;;;;8.67;97.37;101499.72;5106639;28;20212;-78
2023/09/26 05:35:53;;;;;;;7.20;4.87;;;;;;;8.67;96.81;101499.72;5107079;28;20207;-78
2023/09/26 05:38:19;;;;;;;8.33;5.60;;;;;;;8.70;97.34;101504.03;5092896;28;20231;-80
2023/09/26 05:40:46;;;;;;;5.97;4.73;;;;;;;8.70;97.63;101496.94;5102322;28;20204;-81
2023/09/26 05:43:14;;;;;;;8.10;5.20;;;;;;;8.75;97.84;101504.72;5093109;28;20211;-79
2023/09/26 05:45:40;;;;;;;5.60;5.10;;;;;;;8.75;97.58;101510.03;5096011;28;20234;-80
2023/09/26 05:48:07;;;;;;;5.87;4.73;;;;;;;8.74;97.79;101510.09;5088626;28;20238;-78
2023/09/26 05:50:33;;;;;;;8.70;4.73;;;;;;;8.69;97.77;101512.94;5093570;28;20200;-80
2023/09/26 05:53:00;;;;;;;6.63;4.40;;;;;;;8.63;96.69;101506.06;5092032;28;20215;-81
2023/09/26 05:55:27;;;;;;;6.67;4.47;;;;;;;8.62;97.65;101506.13;5096419;28;20200;-75
2023/09/26 05:57:53;;;;;;;6.03;5.37;;;;;;;8.62;97.81;101508.78;5082089;28;20228;-76
2023/09/26 06:00:21;;;;;;;6.20;5.53;;;;;;;8.63;98.87;101507.88;5091844;28;20210;-77
2023/09/26 06:02:48;;;;;;;8.27;4.87;;;;;;;8.66;99.33;101502.44;5088927;28;20203;-77
2023/09/26 06:05:14;;;;;;;5.90;5.40;;;;;;;8.68;99.64;101508.53;5095772;28;20219;-75
2023/09/26 06:07:41;;;;;;;6.50;5.10;;;;;;;8.73;99.08;101505.72;5084059;28;20731;-76
2023/09/26 06:10:10;;;;;;;5.93;5.30;;;;;;;8.76;99.61;101517.06;5086001;28;20211;-75
2023/09/26 06:12:37;;;;;;;5.83;5.03;;;;;;;8.79;100.00;101508.94;5082428;28;20223;-77
2023/09/26 06:15:05;;;;;;;6.17;5.00;;;;;;;8.84;100.00;101509.63;5094818;28;20207;-76
2023/09/26 06:17:33;;;;;;;6.40;5.80;;;;;;;8.89;100.00;101506.78;5084144;28;20236;-77
2023/09/26 06:20:00;;;;;;;5.70;5.20;;;;;;;8.95;100.00;101514.50;5092636;28;20203;-76
2023/09/26 06:22:27;;;;;;;9.33;5.37;;;;;;;8.98;100.00;101501.06;5086890;28;20698;-77
2023/09/26 06:24:53;;;;;;;5.90;4.97;;;;;;;9.04;100.00;101506.13;5080893;28;20287;-76
2023/09/26 06:27:19;;;;;;;7.73;5.40;;;;;;;9.09;100.00;101517.41;5082906;28;20216;-77
2023/09/26 06:29:46;;;;;;;8.13;5.63;;;;;;;9.16;100.00;101518.00;5092565;28;20232;-76
2023/09/26 06:32:14;;;;;;;6.60;5.90;;;;;;;9.20;100.00;101509.81;5088030;28;20233;-76
2023/09/26 06:34:44;;;;;;;6.33;5.70;;;;;;;9.27;100.00;101518.41;5089185;28;20698;-77
2023/09/26 06:37:10;;;;;;;9.03;6.83;;;;;;;9.33;100.00;101507.47;5087323;28;20225;-77
2023/09/26 06:39:37;;;;;;;6.23;5.63;;;;;;;9.40;100.00;101506.28;5087372;28;20208;-76
2023/09/26 06:42:04;;;;;;;6.87;6.23;;;;;;;9.50;100.00;101506.72;5092599;28;20196;-76
2023/09/26 06:44:30;;;;;;;7.10;6.40;;;;;;;9.62;100.00;101509.72;5098537;28;20209;-76
2023/09/26 06:46:57;;;;;;;6.50;5.90;;;;;;;9.73;100.00;101517.19;5094721;28;20231;-76
2023/09/26 06:49:23;;;;;;;6.23;5.63;;;;;;;9.82;100.00;101521.25;5093400;28;20581;-76
2023/09/26 06:51:51;;;;;;;7.97;5.77;;;;;;;9.91;100.00;101526.13;5089997;28;20225;-76
2023/09/26 06:54:18;;;;;;;7.87;5.63;;;;;;;9.99;100.00;101513.31;5095672;28;20199;-77
2023/09/26 06:56:44;;;;;;;5.80;5.23;;;;;;;10.06;100.00;101520.94;5089053;28;20584;-77
2023/09/26 06:59:11;;;;;;;6.37;5.10;;;;;;;10.16;100.00;101520.50;5092020;28;20207;-76
2023/09/26 07:01:38;;;;;;;6.20;5.60;;;;;;;10.25;100.00;101514.75;5087178;28;20213;-76
2023/09/26 07:04:05;;;;;;;6.13;5.53;;;;;;;10.32;100.00;101513.53;5093391;28;20297;-78
2023/09/26 07:06:31;;;;;;;6.70;5.33;;;;;;;10.38;100.00;101514.13;5088181;28;20201;-77
2023/09/26 07:09:00;;;;;;;7.13;5.13;;;;;;;10.50;100.00;101509.97;5092608;28;20228;-76
2023/09/26 07:11:27;;;;;;;5.93;5.43;;;;;;;10.58;100.00;101513.09;5083396;28;20257;-76
2023/09/26 07:13:54;;;;;;;5.43;4.93;;;;;;;10.67;100.00;101512.66;5081570;28;20299;-75
2023/09/26 07:16:21;;;;;;;6.63;5.27;;;;;;;10.76;100.00;101509.53;5085989;28;20457;-77
2023/09/26 07:18:47;;;;;;;7.47;4.67;;;;;;;10.89;100.00;101507.13;5092711;28;20232;-76
2023/09/26 07:21:14;;;;;;;6.63;4.70;;;;;;;10.97;100.00;101504.91;5088187;28;20211;-77
2023/09/26 07:23:40;;;;;;;4.77;4.20;;;;;;;11.08;100.00;101507.91;5085003;28;20296;-76
2023/09/26 07:26:12;;;;;;;7.33;5.27;;;;;;;11.22;100.00;101508.97;5093648;28;20207;-76
2023/09/26 07:28:38;;;;;;;5.67;5.00;;;;;;;11.35;100.00;101512.72;5086936;28;20708;-76
2023/09/26 07:31:05;;;;;;;4.67;4.27;;;;;;;11.49;100.00;101505.69;5091660;28;20629;-76
2023/09/26 07:33:32;;;;;;;5.00;4.53;;;;;;;11.64;100.00;101504.03;5085795;28;20239;-75
2023/09/26 07:35:59;;;;;;;5.13;4.67;;;;;;;11.80;100.00;101504.97;5098306;28;20207;-77
2023/09/26 07:38:25;;;;;;;4.47;4.07;;;;;;;11.99;100.00;101511.94;5088782;28;20215;-77
2023/09/26 07:40:52;;;;;;;5.50;4.40;;;;;;;12.16;100.00;101502.06;5093143;28;20208;-76
2023/09/26 07:43:20;;;;;;;4.17;3.83;;;;;;;12.36;100.00;101502.72;5088943;28;20207;-76
2023/09/26 07:45:46;;;;;;;3.80;3.50;;;;;;;12.58;99.43;101511.22;5089600;28;20204;-77
2023/09/26 07:48:13;;;;;;;3.90;3.60;;;;;;;12.80;98.78;101513.50;5089653;28;20219;-78
2023/09/26 07:50:40;;;;;;;6.00;3.93;;;;;;;13.01;97.95;101504.22;5094376;28;20200;-77
2023/09/26 07:53:07;;;;;;;4.30;3.90;;;;;;;13.23;96.94;101508.31;5090202;28;20255;-76
2023/09/26 07:55:35;;;;;;;4.03;3.63;;;;;;;13.40;94.71;101506.31;5094486;28;20216;-77
2023/09/26 08:00:32;;;;;;;6.67;4.00;;;;;;;13.77;92.80;101499.53;5085657;22;20220;-83
2023/09/26 08:02:58;;;;;;;4.60;4.17;;;;;;;13.98;91.13;101501.78;5056130;28;20608;-83
2023/09/26 08:05:25;;;;;;;5.37;4.87;;;;;;;14.19;90.01;101500.41;5057832;28;20219;-84
2023/09/26 08:07:52;;;;;;;7.97;4.67;;;;;;;14.37;88.86;101504.56;5052318;28;20212;-84
2023/09/26 08:10:18;;;;;;;5.67;4.33;;;;;;;14.56;87.73;101497.06;5051703;28;20573;-83
2023/09/26 08:12:45;;;;;;;5.77;4.37;;;;;;;14.79;86.22;101500.03;5049924;28;20233;-85
2023/09/26 08:15:13;;;;;;;5.20;4.73;;;;;;;14.99;85.30;101488.81;5053597;28;20198;-83
2023/09/26 08:17:41;;;;;;;6.50;4.80;;;;;;;15.16;84.33;101487.63;5052466;28;20230;-83
2023/09/26 08:20:08;;;;;;;4.57;4.13;;;;;;;15.36;85.08;101483.56;5049422;28;20203;-83
2023/09/26 08:22:35;;;;;;;4.53;4.13;;;;;;;15.53;83.91;101484.09;5055448;28;20645;-83
2023/09/26 08:25:02;;;;;;;6.70;3.97;;;;;;;15.76;82.97;101485.19;5053835;28;20206;-83
2023/09/26 08:27:29;;;;;;;3.73;3.33;;;;;;;16.02;81.95;101479.75;5053421;28;20297;-84
2023/09/26 08:29:56;;;;;;;4.30;3.57;;;;;;;16.25;80.99;101485.16;5057785;28;20207;-85
2023/09/26 08:32:22;;;;;;;3.13;2.83;;;;;;;16.49;79.38;101486.97;5055732;28;20226;-83
2023/09/26 08:34:50;;;;;;;3.63;3.33;;;;;;;16.71;77.85;101481.72;5058290;28;20216;-83
2023/09/26 08:37:17;;;;;;;3.40;3.10;;;;;;;16.92;77.02;101482.78;5052646;28;20211;-84
2023/09/26 08:39:44;;;;;;;5.27;2.87;;;;;;;17.12;75.46;101481.25;5054985;28;20218;-82
2023/09/26 08:42:15;;;;;;;4.53;3.13;;;;;;;17.32;73.68;101477.00;5054169;28;20219;-82
2023/09/26 08:44:41;;;;;;;3.37;2.67;;;;;;;17.51;73.60;101476.41;5046980;28;20653;-82
2023/09/26 08:47:08;;;;;;;4.07;2.90;;;;;;;17.73;73.09;101472.91;5050574;28;20598;-81
2023/09/26 08:49:37;;;;;;;4.33;2.90;;;;;;;17.90;72.14;101481.34;5058249;28;20457;-81
2023/09/26 08:52:05;;;;;;;5.47;2.77;;;;;;;18.11;70.36;101472.47;5044276;28;20233;-81
2023/09/26 08:54:32;;;;;;;4.80;2.77;;;;;;;18.29;70.16;101465.56;5048377;28;20249;-81
2023/09/26 08:57:00;;;;;;;4.70;2.80;;;;;;;18.48;69.23;101465.75;5061214;28;20206;-81
2023/09/26 08:59:31;;;;;;;4.97;3.13;;;;;;;18.67;69.03;101463.25;5051874;28;20220;-81
2023/09/26 09:01:58;;;;;;;4.27;3.00;;;;;;;18.82;67.64;101463.78;5052441;28;20226;-80
2023/09/26 09:04:24;;;;;;;5.37;2.97;;;;;;;18.98;66.95;101464.22;5052698;28;20207;-81
2023/09/26 09:07:02;;;;;;;3.77;2.93;;;;;;;19.12;66.46;101463.03;5053892;28;20574;-81
2023/09/26 09:09:30;;;;;;;4.03;2.80;;;;;;;19.31;66.61;101457.75;5057530;28;20213;-81
2023/09/26 09:11:57;;;;;;;3.30;2.47;;;;;;;19.43;64.66;101450.41;5062551;28;20579;-82
2023/09/26 09:14:31;;;;;;;3.20;2.80;;;;;;;19.55;64.32;101449.34;5046643;28;20547;-81
2023/09/26 09:16:58;;;;;;;4.73;2.70;;;;;;;19.62;63.16;101450.50;5049196;28;20213;-80
2023/09/26 09:19:45;;;;;;;4.67;2.40;;;;;;;19.70;63.67;101450.72;5048562;28;20226;-81
2023/09/26 09:22:15;;;;;;;2.43;2.13;;;;;;;19.80;61.83;101441.75;5048983;28;20887;-81
2023/09/26 09:24:44;;;;;;;2.70;2.10;;;;;;;19.87;62.00;101443.78;5050861;28;20262;-82
2023/09/26 09:27:11;;;;;;;3.17;1.83;;;;;;;19.97;62.25;101435.69;5049607;28;20230;-82
2023/09/26 09:29:37;;;;;;;2.10;1.90;;;;;;;20.08;61.84;101431.00;5052662;28;20211;-83
2023/09/26 09:32:07;;;;;;;3.73;2.37;;;;;;;20.22;61.02;101431.63;5050955;28;20233;-83
2023/09/26 09:34:35;;;;;;;2.10;1.90;;;;;;;20.37;61.13;101432.94;5055819;28;20227;-83
2023/09/26 09:37:02;;;;;;;4.32;2.13;;;;;;;20.50;60.02;101429.94;5050833;28;20204;-83
2023/09/26 09:39:28;;;;;;;2.13;1.92;;;;;;;20.58;59.80;101428.25;5059034;28;20201;-82
2023/09/26 09:41:58;;;;;;;3.37;1.97;;;;;;;20.67;58.95;101423.81;5053371;28;20211;-83
2023/09/26 09:44:25;;;;;;;2.58;1.80;;;;;;;20.76;59.06;101426.53;5065103;28;20550;-83
2023/09/26 09:46:56;;;;;;;2.95;1.85;;;;;;;20.86;58.05;101423.78;5059647;28;20205;-83
2023/09/26 09:49:26;;;;;;;2.20;1.95;;;;;;;20.93;57.49;101419.53;5055234;28;20243;-83
2023/09/26 09:51:56;;;;;;;2.38;1.63;;;;;;;21.01;56.77;101426.91;5051830;28;20232;-82
2023/09/26 09:54:25;;;;;;;2.17;1.80;;;;;;;21.06;56.30;101420.06;5058806;28;20727;-83
2023/09/26 09:56:56;;;;;;;2.25;1.92;;;;;;;21.14;57.19;101419.31;5054716;28;20201;-83
2023/09/26 09:59:28;;;;;;;2.53;1.83;;;;;;;21.22;55.41;101415.91;5056234;28;20212;-83
2023/09/26 10:01:55;;;;;;;1.92;1.83;;;;;;;21.27;55.44;101414.47;5055247;28;20223;-82
2023/09/26 10:04:28;;;;;;;2.13;1.60;;;;;;;21.35;54.98;101413.72;5059561;28;20205;-83
2023/09/26 10:06:57;;;;;;;2.05;1.85;;;;;;;21.41;55.01;101405.84;5060497;28;20580;-84
2023/09/26 10:09:24;;;;;;;2.22;1.75;;;;;;;21.47;54.31;101413.41;5061941;28;20200;-84
2023/09/26 10:11:54;;;;;;;1.88;1.58;;;;;;;21.53;54.27;101411.94;5063465;28;20231;-83
2023/09/26 10:14:22;;;;;;;2.58;1.63;;;;;;;21.61;54.44;101414.75;5059588;28;21230;-83
2023/09/26 10:16:50;;;;;;;2.15;1.95;;;;;;;21.70;54.38;101404.84;5055145;28;20201;-83
2023/09/26 10:19:17;;;;;;;5.57;1.92;;;;;;;21.76;54.43;101407.81;5058734;28;20217;-83
2023/09/26 10:21:44;;;;;;;2.20;1.60;;;;;;;21.84;53.99;101401.66;5062481;28;20595;-82
2023/09/26 10:24:29;;;;;;;3.42;1.75;;;;;;;21.92;54.45;101404.44;5062555;28;20212;-83
2023/09/26 10:26:59;;;;;;;2.30;1.63;;;;;;;22.00;53.62;101401.00;5054986;28;20690;-83
2023/09/26 10:29:28;;;;;;;1.80;1.55;;;;;;;22.05;52.95;101402.25;5064205;28;20207;-83
2023/09/26 10:32:02;;;;;;;2.65;1.73;;;;;;;22.11;53.02;101408.94;5053019;28;20255;-84
2023/09/26 10:34:31;;;;;;;1.60;1.50;;;;;;;22.13;52.84;101396.91;5055349;28;20292;-83
2023/09/26 10:36:59;;;;;;;2.85;1.90;;;;;;;22.19;53.03;101394.59;5054976;28;20215;-85
2023/09/26 10:39:33;;;;;;;1.83;1.73;;;;;;;22.25;53.20;101400.25;5057779;28;20280;-83
2023/09/26 10:42:02;;;;;;;1.77;1.55;;;;;;;22.27;52.06;101394.66;5051528;28;20220;-81
2023/09/26 10:44:28;;;;;;;1.77;1.58;;;;;;;22.31;52.31;101396.06;5054089;28;20205;-81
2023/09/26 10:46:56;;;;;;;1.55;1.45;;;;;;;22.36;52.00;101396.47;5054216;28;20702;-81
2023/09/26 10:49:25;;;;;;;3.15;1.60;;;;;;;22.38;52.25;101392.59;5060729;28;20283;-80
2023/09/26 10:51:51;;;;;;;1.63;1.52;;;;;;;22.42;52.50;101384.97;5057026;28;20285;-81
2023/09/26 10:54:18;;;;;;;4.03;1.48;;;;;;;22.46;51.88;101387.22;5061159;28;20717;-82
2023/09/26 10:56:48;;;;;;;3.15;1.70;;;;;;;22.50;52.56;101387.75;5060976;28;20205;-81
2023/09/26 10:59:17;;;;;;;1.85;1.75;;;;;;;22.54;52.68;101385.59;5062198;28;20217;-81
2023/09/26 11:01:45;;;;;;;2.55;1.65;;;;;;;22.59;52.49;101383.25;5054834;28;20227;-81
2023/09/26 11:04:12;;;;;;;2.10;1.40;;;;;;;22.63;51.68;101381.91;5057751;28;20216;-82
2023/09/26 11:06:41;;;;;;;2.47;1.52;;;;;;;22.70;52.55;101378.44;5060989;28;20206;-82
2023/09/26 11:09:08;;;;;;;1.95;1.70;;;;;;;22.75;52.02;101378.78;5052338;28;20205;-82
2023/09/26 11:11:35;;;;;;;2.35;1.75;;;;;;;22.78;51.91;101372.22;5058356;28;20224;-81
2023/09/26 11:14:02;;;;;;;2.75;1.60;;;;;;;22.85;51.60;101373.31;5047169;28;20602;-81
2023/09/26 11:16:28;;;;;;;1.75;1.52;;;;;;;22.93;51.50;101369.81;5057275;28;20212;-81
2023/09/26 11:18:55;;;;;;;2.13;1.67;;;;;;;22.99;50.49;101363.72;5054852;28;20207;-81
2023/09/26 11:21:21;;;;;;;1.73;1.63;;;;;;;23.05;51.08;101360.38;5060621;28;20289;-79
2023/09/26 11:23:49;;;;;;;2.25;1.80;;;;;;;23.08;50.16;101358.19;5053432;28;20204;-80
2023/09/26 11:26:16;;;;;;;1.92;1.50;;;;;;;23.12;50.23;101355.97;5054959;28;20209;-81
2023/09/26 11:28:42;;;;;;;2.13;1.50;;;;;;;23.17;49.79;101359.06;5052127;28;20217;-80
2023/09/26 11:31:09;;;;;;;3.08;1.50;;;;;;;23.21;49.91;101357.72;5056707;28;20225;-80